Time;durP1;ratioP1;P1;durP2;ratioP2;P2;SDS_P1;SDS_P2;PMS_P1;PMS_P2;Temp;Humidity;BMP_temperature;BMP_pressure;BME280_temperature;BME280_humidity;BME280_pressure;Samples;Min_cycle;Max_cycle;Signal;HPM_P1;HPM_P2
2022/01/20 00:02:16;;;;;;;38.92;14.30;;;;;;;-10.88;75.60;100547.84;1760148;81;21722;-81
2022/01/20 00:06:17;;;;;;;29.07;14.28;;;;;;;-10.88;75.72;100550.94;1758955;81;21336;-80
2022/01/20 00:09:15;;;;;;;30.92;15.43;;;;;;;-10.93;76.06;100559.43;1760489;81;21321;-77
2022/01/20 00:25:58;;;;;;;19.92;10.93;;;;;;;-11.42;71.33;100559.20;1753345;80;21874;-78
2022/01/20 00:28:56;;;;;;;23.40;10.03;;;;;;;-11.50;71.11;100554.53;1807458;79;21299;-78
2022/01/20 00:32:12;;;;;;;20.10;9.93;;;;;;;-11.64;71.26;100551.72;1756689;81;21771;-78
2022/01/20 00:38:19;;;;;;;19.12;10.00;;;;;;;-11.74;71.84;100542.25;1757013;81;21200;-78
2022/01/20 00:41:25;;;;;;;18.45;10.15;;;;;;;-11.82;71.21;100547.30;1807460;79;21204;-78
2022/01/20 00:44:32;;;;;;;19.00;10.32;;;;;;;-11.97;70.43;100541.87;1756487;81;21320;-78
2022/01/20 00:47:37;;;;;;;20.82;10.48;;;;;;;-12.06;70.69;100532.81;1805991;79;21794;-78
2022/01/20 00:50:44;;;;;;;22.40;10.25;;;;;;;-12.05;71.13;100534.55;1755534;81;21770;-78
2022/01/20 00:53:51;;;;;;;20.43;10.58;;;;;;;-12.08;71.24;100531.98;1807429;79;21168;-78
2022/01/20 00:56:57;;;;;;;18.62;9.95;;;;;;;-12.14;71.20;100528.98;1756273;81;21330;-78
2022/01/20 01:00:02;;;;;;;19.73;11.28;;;;;;;-12.18;71.45;100536.56;1805802;79;21822;-78
2022/01/20 01:03:10;;;;;;;22.05;10.43;;;;;;;-12.14;71.82;100536.91;1756321;81;21810;-78
2022/01/20 01:06:54;;;;;;;24.57;11.03;;;;;;;-12.13;71.89;100542.17;1805662;79;21936;-78
2022/01/20 01:09:22;;;;;;;22.40;10.28;;;;;;;-12.12;71.80;100541.72;1756677;81;21303;-78
2022/01/20 01:12:37;;;;;;;18.75;9.88;;;;;;;-12.13;71.46;100539.98;1807595;79;21279;-78
2022/01/20 01:15:41;;;;;;;20.50;11.75;;;;;;;-12.11;71.18;100546.09;1755291;81;21354;-78
2022/01/20 01:25:17;;;;;;;24.75;11.85;;;;;;;-12.22;69.68;100538.38;1800099;79;21685;-78
2022/01/20 01:28:25;;;;;;;25.00;12.35;;;;;;;-12.37;69.62;100533.40;1801625;79;21719;-77
2022/01/20 01:34:40;;;;;;;23.62;11.08;;;;;;;-12.48;71.04;100532.24;1801440;79;21193;-77
2022/01/20 01:41:25;;;;;;;21.73;10.98;;;;;;;-12.47;71.21;100510.70;1784810;79;21195;-80
2022/01/20 01:44:28;;;;;;;21.90;11.33;;;;;;;-12.48;71.23;100496.66;1805881;79;21280;-79
2022/01/20 01:47:32;;;;;;;27.25;11.57;;;;;;;-12.40;70.82;100499.17;1805653;79;21323;-78
2022/01/20 01:50:39;;;;;;;21.33;10.28;;;;;;;-12.35;70.37;100502.59;1805502;79;21856;-78
2022/01/20 01:53:46;;;;;;;27.13;11.80;;;;;;;-12.32;70.00;100490.68;1775846;79;21287;-81
2022/01/20 01:56:53;;;;;;;27.02;11.75;;;;;;;-12.36;69.53;100477.13;1797640;79;21849;-77
2022/01/20 02:00:01;;;;;;;21.83;10.57;;;;;;;-12.49;69.26;100482.20;1797946;80;21259;-77
2022/01/20 02:03:07;;;;;;;23.12;11.10;;;;;;;-12.59;69.25;100482.82;1797680;80;21805;-80
2022/01/20 02:19:30;;;;;;;18.65;10.53;;;;;;;-12.84;69.09;100503.45;1797512;80;21786;-78
2022/01/20 02:22:33;;;;;;;22.02;10.32;;;;;;;-12.87;69.26;100506.13;1767966;79;21904;-77
2022/01/20 02:25:46;;;;;;;29.85;12.28;;;;;;;-12.81;69.52;100507.79;1785052;80;21331;-78
2022/01/20 02:28:53;;;;;;;24.72;11.03;;;;;;;-12.94;69.44;100507.97;1784775;80;21306;-80
2022/01/20 02:32:04;;;;;;;21.48;11.03;;;;;;;-13.00;69.80;100509.84;1784852;80;21853;-79
2022/01/20 02:35:10;;;;;;;21.40;11.43;;;;;;;-12.96;70.04;100503.19;1784735;80;21275;-78
2022/01/20 02:38:23;;;;;;;34.27;15.78;;;;;;;-12.92;70.28;100511.47;1784309;78;21296;-79
2022/01/20 02:44:56;;;;;;;36.00;16.55;;;;;;;-12.75;70.90;100499.77;1785096;80;21268;-79
2022/01/20 02:48:01;;;;;;;82.90;29.72;;;;;;;-12.60;70.86;100495.58;1784863;80;21252;-76
2022/01/20 02:51:07;;;;;;;38.23;16.07;;;;;;;-12.59;70.61;100494.68;1784637;80;21636;-76
2022/01/20 02:54:13;;;;;;;43.00;17.37;;;;;;;-12.66;70.56;100493.89;1784476;80;21288;-76
2022/01/20 02:57:19;;;;;;;72.58;26.02;;;;;;;-12.70;70.33;100486.07;1784376;80;21559;-76
2022/01/20 03:00:24;;;;;;;60.78;28.25;;;;;;;-12.69;70.57;100480.80;1784191;80;21287;-79
2022/01/20 03:03:28;;;;;;;40.30;15.78;;;;;;;-12.63;71.24;100478.50;1784300;80;21789;-78
2022/01/20 03:06:34;;;;;;;24.23;13.08;;;;;;;-12.60;71.53;100474.95;1783567;80;21299;-79
2022/01/20 03:09:40;;;;;;;29.48;12.30;;;;;;;-12.59;71.12;100472.73;1784043;79;21882;-76
2022/01/20 03:12:47;;;;;;;22.32;12.37;;;;;;;-12.61;70.55;100462.20;1784239;80;21276;-77
2022/01/20 03:15:52;;;;;;;25.65;13.20;;;;;;;-12.64;70.01;100467.55;1784135;80;21769;-77
2022/01/20 03:18:59;;;;;;;26.73;13.70;;;;;;;-12.69;69.64;100464.98;1783078;80;21343;-82
2022/01/20 03:22:04;;;;;;;24.90;12.15;;;;;;;-12.72;69.37;100452.31;1783297;80;21318;-81
2022/01/20 03:25:13;;;;;;;30.82;13.25;;;;;;;-12.73;68.87;100454.08;1792627;77;22157;-81
2022/01/20 03:28:19;;;;;;;31.07;15.43;;;;;;;-12.81;68.19;100457.28;1780226;80;21315;-77
2022/01/20 03:31:25;;;;;;;31.70;13.95;;;;;;;-12.90;68.75;100456.99;1813864;79;21884;-76
2022/01/20 03:34:30;;;;;;;24.85;13.35;;;;;;;-12.86;69.41;100458.27;1780728;80;21260;-81
2022/01/20 03:37:37;;;;;;;26.65;13.83;;;;;;;-12.84;69.63;100457.36;1813155;78;21327;-77
2022/01/20 03:40:45;;;;;;;31.73;14.23;;;;;;;-12.76;69.90;100438.31;1780495;80;21842;-81
2022/01/20 03:43:50;;;;;;;33.28;16.57;;;;;;;-12.68;70.28;100435.55;1814460;79;21256;-77
2022/01/20 03:46:58;;;;;;;27.90;14.13;;;;;;;-12.59;70.93;100435.84;1780044;80;21841;-80
2022/01/20 03:53:09;;;;;;;28.83;13.90;;;;;;;-12.50;71.60;100445.76;1779837;80;21963;-77
2022/01/20 03:56:16;;;;;;;26.60;14.33;;;;;;;-12.43;71.65;100451.77;1813269;79;21216;-79
2022/01/20 03:59:28;;;;;;;31.00;15.58;;;;;;;-12.35;71.28;100451.18;1759674;80;21255;-77
2022/01/20 04:02:35;;;;;;;24.25;14.68;;;;;;;-12.31;71.00;100454.19;1779572;80;21315;-77
2022/01/20 04:06:00;;;;;;;28.70;15.10;;;;;;;-12.27;71.18;100453.23;1814205;79;21283;-80
2022/01/20 04:09:07;;;;;;;28.27;12.73;;;;;;;-12.28;71.00;100449.28;1779769;80;21505;-76
2022/01/20 04:12:14;;;;;;;38.48;20.85;;;;;;;-12.32;70.74;100451.14;1813241;79;21192;-77
2022/01/20 04:15:25;;;;;;;38.90;19.62;;;;;;;-12.35;70.77;100448.55;1781203;80;21676;-80
2022/01/20 04:18:27;;;;;;;41.85;18.00;;;;;;;-12.36;71.07;100449.45;1814782;79;21229;-80
2022/01/20 04:21:35;;;;;;;38.90;16.75;;;;;;;-12.37;71.18;100447.72;1781101;80;22267;-76
2022/01/20 04:24:41;;;;;;;29.90;15.48;;;;;;;-12.41;71.07;100453.95;1813564;78;21300;-80
2022/01/20 04:27:47;;;;;;;32.03;14.68;;;;;;;-12.41;70.94;100446.04;1804508;79;21294;-76
2022/01/20 04:30:52;;;;;;;25.57;13.72;;;;;;;-12.38;70.72;100448.59;1814446;79;21337;-77
2022/01/20 04:33:59;;;;;;;27.02;14.58;;;;;;;-12.32;70.44;100449.81;1806792;79;21191;-79
2022/01/20 04:37:05;;;;;;;38.65;18.42;;;;;;;-12.29;70.31;100453.69;1786295;79;21310;-76
2022/01/20 04:40:10;;;;;;;33.10;16.30;;;;;;;-12.29;70.56;100448.88;1791548;78;21773;-80
2022/01/20 04:43:15;;;;;;;26.52;13.85;;;;;;;-12.28;70.98;100450.60;1780789;80;21351;-79
2022/01/20 04:46:33;;;;;;;26.60;14.23;;;;;;;-12.28;71.38;100447.52;1788039;79;21231;-76
2022/01/20 04:59:43;;;;;;;25.60;10.88;;;;;;;-12.06;73.95;100446.64;1781474;80;21294;-80
2022/01/20 05:02:49;;;;;;;26.60;11.90;;;;;;;-12.11;75.12;100444.55;1772972;81;21284;-76
2022/01/20 05:05:57;;;;;;;31.05;13.43;;;;;;;-12.15;76.33;100454.28;1772837;81;21240;-78
2022/01/20 05:09:03;;;;;;;21.65;12.20;;;;;;;-12.14;77.04;100451.20;1779548;79;21169;-80
2022/01/20 05:12:11;;;;;;;29.80;13.22;;;;;;;-12.14;75.89;100453.41;1803664;79;21706;-77
2022/01/20 05:15:15;;;;;;;18.77;10.35;;;;;;;-12.12;74.91;100455.55;1804542;79;21276;-80
2022/01/20 05:18:22;;;;;;;32.13;15.08;;;;;;;-12.06;74.13;100461.60;1805003;79;21157;-80
2022/01/20 05:21:28;;;;;;;26.95;15.30;;;;;;;-12.25;72.70;100475.60;1803069;79;21312;-76
2022/01/20 05:24:35;;;;;;;27.17;14.25;;;;;;;-12.37;72.49;100468.81;1773517;79;21250;-77
2022/01/20 05:27:43;;;;;;;28.90;13.40;;;;;;;-12.35;72.60;100475.36;1773291;81;21298;-77
2022/01/20 05:30:48;;;;;;;32.80;15.00;;;;;;;-12.30;72.80;100469.09;1772969;81;21306;-79
2022/01/20 05:34:01;;;;;;;32.25;15.23;;;;;;;-12.22;72.82;100468.51;1773297;81;21188;-77
2022/01/20 05:37:07;;;;;;;35.43;17.42;;;;;;;-12.19;72.87;100477.66;1775498;79;21698;-79
2022/01/20 05:40:14;;;;;;;35.45;16.10;;;;;;;-12.11;73.11;100483.66;1779799;78;21852;-77
2022/01/20 05:43:21;;;;;;;35.45;17.15;;;;;;;-11.99;73.32;100479.92;1788065;79;21311;-80
2022/01/20 05:46:28;;;;;;;47.35;18.57;;;;;;;-11.82;73.29;100476.92;1780281;79;21277;-77
2022/01/20 05:49:35;;;;;;;40.92;17.42;;;;;;;-11.67;73.19;100488.43;1787530;79;21639;-81
2022/01/20 05:52:43;;;;;;;35.43;16.55;;;;;;;-11.51;73.38;100474.92;1786748;79;21314;-80
2022/01/20 05:55:48;;;;;;;35.92;18.75;;;;;;;-11.35;73.68;100481.58;1786887;79;21167;-76
2022/01/20 05:58:54;;;;;;;43.15;17.50;;;;;;;-11.26;74.05;100476.09;1790429;79;21224;-78
2022/01/20 06:02:09;;;;;;;55.75;18.85;;;;;;;-11.20;76.35;100478.58;1793324;79;21817;-75
2022/01/20 06:05:06;;;;;;;39.60;14.93;;;;;;;-11.04;78.86;100479.11;1791839;79;21165;-78
2022/01/20 06:08:12;;;;;;;49.08;19.55;;;;;;;-10.76;80.54;100468.73;1789883;77;21336;-77
2022/01/20 06:11:18;;;;;;;62.53;21.50;;;;;;;-10.48;81.76;100469.34;1789579;77;21189;-78
2022/01/20 06:14:27;;;;;;;40.90;18.42;;;;;;;-10.27;83.08;100472.72;1783292;77;21280;-82
2022/01/20 06:17:34;;;;;;;46.77;19.75;;;;;;;-10.06;84.31;100465.49;1785644;79;21197;-76
2022/01/20 06:20:38;;;;;;;48.90;20.37;;;;;;;-9.89;85.43;100462.81;1788664;78;21259;-78
2022/01/20 06:23:45;;;;;;;52.65;23.38;;;;;;;-9.71;86.54;100467.57;1798169;79;21626;-77
2022/01/20 06:26:51;;;;;;;45.65;19.37;;;;;;;-9.51;87.42;100466.97;1784461;79;21619;-76
2022/01/20 06:29:56;;;;;;;50.58;19.80;;;;;;;-9.32;88.27;100456.67;1782911;77;21313;-77
2022/01/20 06:33:02;;;;;;;58.33;24.40;;;;;;;-9.12;89.00;100449.45;1796204;79;21311;-80
2022/01/20 06:36:09;;;;;;;53.10;22.25;;;;;;;-8.94;89.62;100447.50;1784591;79;21268;-80
2022/01/20 06:39:15;;;;;;;46.95;20.08;;;;;;;-8.70;90.35;100441.86;1786040;77;22193;-80
2022/01/20 06:42:21;;;;;;;51.88;20.65;;;;;;;-8.44;90.95;100448.05;1785677;77;21334;-81
2022/01/20 06:45:27;;;;;;;43.35;19.70;;;;;;;-8.23;91.32;100445.95;1781602;77;21273;-81
2022/01/20 06:48:34;;;;;;;50.73;22.37;;;;;;;-8.06;91.72;100438.69;1782901;77;21209;-80
2022/01/20 06:51:47;;;;;;;46.80;20.35;;;;;;;-7.91;91.95;100437.25;1783187;77;21290;-76
2022/01/20 06:54:54;;;;;;;54.85;22.98;;;;;;;-7.77;92.25;100431.83;1782521;77;21301;-77
2022/01/20 06:58:01;;;;;;;48.13;21.23;;;;;;;-7.64;92.63;100428.25;1783689;79;21831;-78
2022/01/20 07:01:03;;;;;;;60.78;26.70;;;;;;;-7.51;92.89;100421.55;1783996;77;21281;-78
2022/01/20 07:04:13;;;;;;;43.70;20.40;;;;;;;-7.37;93.23;100408.19;1785661;77;21850;-77
2022/01/20 07:07:27;;;;;;;71.12;31.57;;;;;;;-7.17;93.60;100404.25;1785079;79;21587;-77
2022/01/20 07:10:35;;;;;;;52.80;24.10;;;;;;;-6.95;93.68;100402.45;1786082;77;21238;-76
2022/01/20 07:13:42;;;;;;;49.23;22.62;;;;;;;-6.75;93.67;100398.95;1782654;77;21147;-76
2022/01/20 07:16:48;;;;;;;64.20;29.80;;;;;;;-6.61;93.51;100397.50;1782103;77;21187;-77
2022/01/20 07:19:56;;;;;;;77.32;32.08;;;;;;;-6.44;93.58;100394.52;1783294;78;21180;-77
2022/01/20 07:23:04;;;;;;;64.72;31.20;;;;;;;-6.24;93.43;100391.44;1785086;78;21760;-78
2022/01/20 07:26:26;;;;;;;58.00;24.92;;;;;;;-5.97;93.61;100395.53;1784958;78;21306;-78
2022/01/20 07:29:34;;;;;;;56.98;25.43;;;;;;;-5.74;93.18;100398.88;1784167;78;21395;-76
2022/01/20 07:32:40;;;;;;;50.38;22.30;;;;;;;-5.61;92.72;100393.37;1787765;78;21297;-77
2022/01/20 07:35:46;;;;;;;44.42;21.42;;;;;;;-5.46;92.49;100385.13;1786836;78;21575;-77
2022/01/20 07:38:53;;;;;;;61.15;24.32;;;;;;;-5.36;92.06;100382.87;1780721;78;21163;-78
2022/01/20 07:41:59;;;;;;;44.65;22.35;;;;;;;-5.27;91.75;100382.44;1786407;78;21438;-77
2022/01/20 07:45:21;;;;;;;47.17;22.02;;;;;;;-5.19;91.36;100373.13;1784200;78;21674;-76
2022/01/20 07:48:44;;;;;;;48.45;22.52;;;;;;;-5.04;91.21;100375.50;1786915;78;21280;-76
2022/01/20 07:51:59;;;;;;;61.40;26.80;;;;;;;-4.92;90.68;100368.23;1774494;79;21828;-79
2022/01/20 07:55:20;;;;;;;54.35;28.57;;;;;;;-4.86;90.10;100387.06;1792776;77;21606;-84
2022/01/20 07:58:30;;;;;;;62.70;28.83;;;;;;;-4.73;89.93;100376.17;1783416;77;21183;-77
2022/01/20 08:01:38;;;;;;;50.55;23.92;;;;;;;-4.46;89.98;100371.70;1786051;77;21672;-77
2022/01/20 08:04:44;;;;;;;45.20;24.18;;;;;;;-4.35;88.91;100357.78;1791812;77;21650;-78
2022/01/20 08:07:52;;;;;;;65.57;27.65;;;;;;;-4.40;87.83;100369.56;1788981;79;21758;-77
2022/01/20 08:10:59;;;;;;;54.77;25.15;;;;;;;-4.49;87.60;100373.19;1786395;77;22534;-79
2022/01/20 08:14:06;;;;;;;59.45;27.25;;;;;;;-4.45;87.43;100376.95;1791532;77;21302;-79
2022/01/20 08:17:12;;;;;;;55.30;28.27;;;;;;;-4.46;87.13;100384.58;1785040;77;21160;-81
2022/01/20 08:20:30;;;;;;;53.90;24.45;;;;;;;-4.34;87.19;100390.22;1787261;77;21532;-79
2022/01/20 08:23:57;;;;;;;59.88;27.40;;;;;;;-4.18;87.21;100389.34;1783104;77;21742;-78
2022/01/20 08:27:33;;;;;;;69.67;30.55;;;;;;;-3.94;86.79;100381.83;1784331;77;21671;-77
2022/01/20 08:30:43;;;;;;;58.68;29.32;;;;;;;-3.87;85.67;100383.20;1787543;77;21585;-79
2022/01/20 08:33:51;;;;;;;58.02;26.97;;;;;;;-3.89;85.12;100385.11;1781915;77;21236;-82
2022/01/20 08:37:00;;;;;;;58.58;26.60;;;;;;;-3.86;85.14;100388.97;1793751;77;22466;-83
2022/01/20 08:40:09;;;;;;;53.50;28.55;;;;;;;-3.73;85.27;100378.92;1783988;77;21291;-83
2022/01/20 08:43:14;;;;;;;61.18;25.32;;;;;;;-3.50;85.28;100375.84;1786057;77;21203;-83
2022/01/20 08:46:21;;;;;;;54.45;24.85;;;;;;;-3.28;84.80;100377.33;1806344;77;21190;-82
2022/01/20 08:49:28;;;;;;;47.05;22.17;;;;;;;-3.26;84.06;100362.89;1807919;77;21168;-84
2022/01/20 08:52:34;;;;;;;42.88;22.73;;;;;;;-3.25;83.91;100363.75;1806841;77;21638;-81
2022/01/20 08:55:40;;;;;;;33.23;17.87;;;;;;;-3.24;83.95;100373.53;1793054;78;22001;-80
2022/01/20 08:58:45;;;;;;;30.90;16.60;;;;;;;-3.12;84.28;100365.64;1806603;77;21259;-82
2022/01/20 09:01:50;;;;;;;32.75;17.12;;;;;;;-3.05;84.32;100359.48;1775361;78;21670;-82
2022/01/20 09:04:58;;;;;;;28.92;14.95;;;;;;;-2.92;84.69;100348.42;1779120;78;21286;-80
2022/01/20 09:08:12;;;;;;;27.50;14.13;;;;;;;-2.63;84.72;100359.25;1807073;77;22007;-84
2022/01/20 09:11:29;;;;;;;28.13;15.17;;;;;;;-2.36;84.44;100351.35;1805289;77;21840;-84
2022/01/20 09:18:03;;;;;;;30.75;15.00;;;;;;;-2.08;83.39;100338.46;1809702;77;21225;-85
2022/01/20 09:21:11;;;;;;;34.05;17.55;;;;;;;-2.04;82.93;100335.98;1807608;77;21181;-77
2022/01/20 09:24:22;;;;;;;21.95;10.88;;;;;;;-1.96;83.20;100323.45;1804786;77;21311;-77
2022/01/20 09:27:31;;;;;;;23.10;13.05;;;;;;;-1.87;82.98;100322.88;1805591;77;22097;-81
2022/01/20 09:30:38;;;;;;;19.50;10.05;;;;;;;-1.78;83.01;100324.11;1783388;79;21762;-80
2022/01/20 09:33:44;;;;;;;17.98;10.50;;;;;;;-1.65;82.95;100325.88;1789762;78;21831;-78
2022/01/20 09:36:50;;;;;;;18.42;10.68;;;;;;;-1.55;82.84;100316.80;1784056;79;22207;-85
2022/01/20 09:40:02;;;;;;;19.85;10.93;;;;;;;-1.30;82.72;100308.85;1806037;78;21368;-83
2022/01/20 09:43:14;;;;;;;20.27;11.45;;;;;;;-1.07;82.32;100305.14;1786478;78;22155;-82
2022/01/20 09:46:18;;;;;;;16.23;9.58;;;;;;;-0.81;81.78;100297.99;1769862;79;21294;-84
2022/01/20 09:49:29;;;;;;;19.95;10.08;;;;;;;-0.76;80.71;100289.13;1773375;80;21294;-83
2022/01/20 09:52:37;;;;;;;20.43;10.58;;;;;;;-0.78;80.37;100283.88;1778081;79;21938;-83
2022/01/20 09:55:48;;;;;;;16.07;8.80;;;;;;;-0.81;80.00;100283.22;1773085;80;21308;-84
2022/01/20 09:58:55;;;;;;;18.85;8.68;;;;;;;-0.87;79.84;100280.47;1775718;80;21199;-84
2022/01/20 10:02:01;;;;;;;20.27;9.30;;;;;;;-0.93;79.79;100263.45;1789313;78;21291;-83
2022/01/20 10:05:11;;;;;;;13.85;8.65;;;;;;;-1.02;79.85;100258.70;1788281;78;21167;-83
2022/01/20 10:08:30;;;;;;;15.93;8.78;;;;;;;-1.12;80.02;100251.75;1785274;78;21248;-80
2022/01/20 10:11:43;;;;;;;13.25;7.28;;;;;;;-1.15;80.44;100247.06;1770954;78;22035;-83
2022/01/20 10:15:12;;;;;;;16.32;8.45;;;;;;;-1.09;80.39;100234.08;1752867;79;21868;-83
2022/01/20 10:18:22;;;;;;;16.80;9.18;;;;;;;-1.08;80.35;100236.30;1777551;78;21694;-82
2022/01/20 10:21:44;;;;;;;14.90;8.78;;;;;;;-1.09;80.55;100235.91;1798786;78;21278;-81
2022/01/20 10:24:51;;;;;;;14.95;8.70;;;;;;;-1.08;80.92;100227.77;1777292;78;21579;-80
2022/01/20 10:28:11;;;;;;;20.02;8.60;;;;;;;-1.10;80.63;100218.94;1749569;77;21289;-82
2022/01/20 10:31:22;;;;;;;18.52;9.78;;;;;;;-1.24;80.78;100229.75;1774440;79;21306;-82
2022/01/20 10:34:35;;;;;;;22.60;9.03;;;;;;;-1.35;81.21;100218.41;1789798;77;21733;-84
2022/01/20 10:37:43;;;;;;;20.43;8.23;;;;;;;-1.36;81.80;100211.32;1789756;77;21272;-85
2022/01/20 10:40:59;;;;;;;16.87;8.68;;;;;;;-1.44;82.03;100210.97;1784543;77;21326;-78
2022/01/20 10:44:16;;;;;;;19.92;8.55;;;;;;;-1.50;82.63;100212.73;1788378;77;21684;-79
2022/01/20 10:47:31;;;;;;;15.75;8.40;;;;;;;-1.48;82.87;100204.56;1785876;77;21338;-79
2022/01/20 10:50:40;;;;;;;14.98;8.83;;;;;;;-1.56;82.89;100203.23;1784311;79;21661;-78
2022/01/20 10:53:47;;;;;;;16.90;9.33;;;;;;;-1.63;82.94;100191.70;1785273;77;21297;-78
2022/01/20 10:57:02;;;;;;;21.52;9.33;;;;;;;-1.71;83.15;100187.31;1782268;79;21295;-78
2022/01/20 11:00:19;;;;;;;16.80;9.95;;;;;;;-1.79;83.57;100187.80;1782207;77;21300;-84
2022/01/20 11:03:27;;;;;;;20.23;9.90;;;;;;;-1.91;84.15;100169.37;1787095;79;21896;-83
2022/01/20 11:06:36;;;;;;;18.07;9.85;;;;;;;-1.99;84.82;100165.47;1784475;79;21594;-83
2022/01/20 11:09:44;;;;;;;17.05;9.10;;;;;;;-2.04;85.40;100160.41;1764259;77;21283;-78
2022/01/20 11:13:08;;;;;;;24.98;10.50;;;;;;;-2.06;85.56;100147.60;1786325;79;21942;-78
2022/01/20 11:16:17;;;;;;;16.70;9.03;;;;;;;-2.07;85.53;100148.54;1801528;77;22169;-84
2022/01/20 11:19:31;;;;;;;16.55;8.93;;;;;;;-2.08;85.65;100148.16;1776656;80;21614;-84
2022/01/20 11:22:34;;;;;;;20.23;9.93;;;;;;;-2.06;85.85;100142.24;1807379;77;21313;-77
2022/01/20 11:25:41;;;;;;;19.40;9.93;;;;;;;-2.08;85.66;100136.11;1771701;79;21673;-84
2022/01/20 11:29:09;;;;;;;22.62;10.28;;;;;;;-2.08;85.40;100138.78;1776304;79;21258;-79
2022/01/20 11:32:35;;;;;;;25.60;11.22;;;;;;;-2.04;85.07;100136.77;1782397;79;21160;-77
2022/01/20 11:35:58;;;;;;;17.45;9.28;;;;;;;-2.00;84.68;100131.11;1808313;77;22128;-78
2022/01/20 11:39:09;;;;;;;18.77;10.08;;;;;;;-2.01;84.29;100125.37;1786217;77;21316;-84
2022/01/20 11:42:14;;;;;;;20.20;9.83;;;;;;;-2.03;83.89;100123.25;1786252;77;21168;-85
2022/01/20 11:45:35;;;;;;;18.57;9.88;;;;;;;-2.04;83.79;100117.52;1789983;77;21305;-83
2022/01/20 11:48:41;;;;;;;24.05;10.50;;;;;;;-2.09;83.58;100110.27;1783717;77;21873;-84
2022/01/20 11:52:01;;;;;;;21.77;9.95;;;;;;;-2.14;83.60;100102.53;1791035;77;21277;-84
2022/01/20 11:55:07;;;;;;;17.67;9.35;;;;;;;-2.16;83.54;100098.25;1792415;77;21184;-82
2022/01/20 11:58:23;;;;;;;20.52;9.48;;;;;;;-2.17;83.69;100098.70;1762102;79;21255;-78
2022/01/20 12:01:27;;;;;;;18.57;10.55;;;;;;;-2.12;83.78;100094.37;1785059;77;21299;-87
2022/01/20 12:04:47;;;;;;;19.67;10.18;;;;;;;-2.11;83.58;100076.03;1793099;79;21310;-85
2022/01/20 12:07:58;;;;;;;20.72;9.48;;;;;;;-2.15;83.49;100080.72;1784531;77;21141;-78
2022/01/20 12:11:16;;;;;;;20.10;9.55;;;;;;;-2.19;83.29;100089.06;1782102;77;21766;-78
2022/01/20 12:14:17;;;;;;;17.87;10.68;;;;;;;-2.19;83.33;100077.00;1786172;77;21236;-77
2022/01/20 12:17:23;;;;;;;27.55;11.83;;;;;;;-2.21;83.01;100067.73;1801114;79;21270;-84
2022/01/20 12:20:29;;;;;;;19.10;9.80;;;;;;;-2.24;82.95;100065.73;1784187;79;21778;-83
2022/01/20 12:23:34;;;;;;;15.15;8.90;;;;;;;-2.22;82.98;100071.83;1811441;79;21264;-77
2022/01/20 12:26:43;;;;;;;21.62;11.57;;;;;;;-2.19;82.92;100081.02;1788013;77;21296;-77
2022/01/20 12:29:50;;;;;;;21.30;10.13;;;;;;;-2.16;82.71;100070.97;1789321;77;21276;-78
2022/01/20 12:33:14;;;;;;;17.92;9.23;;;;;;;-2.14;82.62;100066.84;1791380;77;21267;-77
2022/01/20 12:36:23;;;;;;;19.65;9.58;;;;;;;-2.14;82.58;100058.80;1803506;79;21157;-77
2022/01/20 12:39:35;;;;;;;17.23;9.65;;;;;;;-2.14;82.66;100056.12;1805648;79;21264;-84
2022/01/20 12:42:44;;;;;;;17.67;10.00;;;;;;;-2.16;82.63;100045.52;1791169;79;21901;-84
2022/01/20 12:45:58;;;;;;;24.10;10.68;;;;;;;-2.19;82.50;100041.69;1850494;77;21311;-78
2022/01/20 12:49:21;;;;;;;21.57;10.30;;;;;;;-2.23;82.44;100040.65;1776939;80;21177;-83
2022/01/20 12:52:27;;;;;;;22.13;10.95;;;;;;;-2.28;82.45;100038.75;1781209;79;21139;-84
2022/01/20 12:55:32;;;;;;;22.73;10.08;;;;;;;-2.32;82.56;100042.11;1767464;80;21188;-77
2022/01/20 12:58:38;;;;;;;21.62;10.35;;;;;;;-2.38;82.71;100042.04;1772568;80;21152;-76
2022/01/20 13:02:24;;;;;;;22.07;11.73;;;;;;;-2.47;82.76;100025.71;1773056;80;21706;-77
2022/01/20 13:05:32;;;;;;;22.60;11.70;;;;;;;-2.54;82.94;100020.36;1690388;84;21205;-84
2022/01/20 13:08:41;;;;;;;24.23;11.50;;;;;;;-2.62;83.23;100023.56;1689645;84;21869;-76
2022/01/20 13:12:02;;;;;;;21.65;10.25;;;;;;;-2.66;83.66;100017.53;1686562;84;21196;-76
2022/01/20 13:15:04;;;;;;;26.45;12.03;;;;;;;-2.68;83.96;100013.23;1688025;84;21239;-76
2022/01/20 13:18:15;;;;;;;21.82;12.00;;;;;;;-2.69;84.26;100020.41;1695160;84;21164;-77
2022/01/20 13:21:25;;;;;;;22.20;11.00;;;;;;;-2.68;84.40;100009.21;1690266;84;21808;-77
2022/01/20 13:24:36;;;;;;;26.20;11.25;;;;;;;-2.67;84.50;100009.61;1691121;84;21295;-81
2022/01/20 13:27:41;;;;;;;20.15;10.35;;;;;;;-2.70;84.41;100005.30;1688409;84;21199;-82
2022/01/20 13:30:50;;;;;;;19.37;10.63;;;;;;;-2.75;84.39;100011.44;1690804;84;21259;-76
2022/01/20 13:33:55;;;;;;;23.42;10.70;;;;;;;-2.79;84.52;100000.55;1691216;84;21721;-77
2022/01/20 13:37:01;;;;;;;19.82;11.38;;;;;;;-2.88;84.66;99989.95;1690903;84;21293;-84
2022/01/20 13:40:06;;;;;;;20.30;9.28;;;;;;;-2.92;84.86;99984.41;1694911;84;22312;-84
2022/01/20 13:46:40;;;;;;;22.62;9.98;;;;;;;-2.97;85.24;99971.80;1688662;84;21199;-77
2022/01/20 13:50:00;;;;;;;21.77;9.73;;;;;;;-2.99;85.65;99976.89;1699724;84;21270;-76
2022/01/20 13:53:07;;;;;;;24.98;9.98;;;;;;;-2.99;85.88;99967.52;1702512;84;21273;-82
2022/01/20 13:56:15;;;;;;;16.62;9.38;;;;;;;-2.98;85.99;99972.77;1701196;84;21627;-76
2022/01/20 13:59:20;;;;;;;20.32;9.50;;;;;;;-3.02;86.20;99969.91;1702213;84;21325;-83
2022/01/20 14:02:27;;;;;;;20.52;11.00;;;;;;;-3.05;86.50;99974.14;1700796;84;21411;-76
2022/01/20 14:05:37;;;;;;;17.45;9.68;;;;;;;-3.05;86.61;99962.58;1668715;85;21289;-84
2022/01/20 14:08:44;;;;;;;17.25;9.43;;;;;;;-3.11;86.57;99959.79;1694332;84;21242;-85
2022/01/20 14:11:50;;;;;;;21.50;10.35;;;;;;;-3.23;86.73;99956.58;1687977;84;21205;-77
2022/01/20 14:14:56;;;;;;;20.57;10.43;;;;;;;-3.35;87.07;99959.53;1690530;84;21351;-85
2022/01/20 14:18:03;;;;;;;24.47;9.55;;;;;;;-3.42;87.33;99945.70;1690797;84;21355;-77
2022/01/20 14:21:09;;;;;;;18.23;9.25;;;;;;;-3.51;87.63;99942.27;1692130;84;21282;-78
2022/01/20 14:24:14;;;;;;;21.42;9.25;;;;;;;-3.58;88.09;99943.59;1690780;84;21804;-80
2022/01/20 14:27:19;;;;;;;23.47;11.03;;;;;;;-3.65;88.32;99936.45;1689937;84;21890;-77
2022/01/20 14:30:25;;;;;;;18.35;9.98;;;;;;;-3.72;88.77;99928.89;1694176;84;21529;-77
2022/01/20 14:33:30;;;;;;;17.90;9.78;;;;;;;-3.77;89.15;99932.33;1689331;84;21165;-78
2022/01/20 14:36:34;;;;;;;20.72;9.40;;;;;;;-3.81;89.36;99929.01;1693350;84;21265;-77
2022/01/20 14:39:40;;;;;;;23.52;11.45;;;;;;;-3.83;89.58;99924.70;1700763;84;21285;-80
2022/01/20 14:42:45;;;;;;;19.48;11.05;;;;;;;-3.83;89.92;99923.36;1704621;84;21281;-85
2022/01/20 14:45:51;;;;;;;27.70;10.72;;;;;;;-3.84;90.16;99924.33;1704617;84;21213;-78
2022/01/20 14:48:57;;;;;;;18.20;10.40;;;;;;;-3.86;90.35;99919.05;1704049;84;21218;-77
2022/01/20 14:52:02;;;;;;;20.70;10.58;;;;;;;-3.89;90.61;99916.59;1703384;84;21257;-85
2022/01/20 14:55:07;;;;;;;25.37;10.55;;;;;;;-3.94;90.64;99910.19;1704799;84;21563;-86
2022/01/20 14:58:13;;;;;;;20.90;10.68;;;;;;;-3.98;90.71;99912.66;1704694;84;21282;-78
2022/01/20 15:01:18;;;;;;;25.55;11.78;;;;;;;-4.02;90.95;99911.61;1704655;84;21365;-77
2022/01/20 15:04:24;;;;;;;23.05;11.75;;;;;;;-4.03;91.14;99909.89;1703212;84;21183;-85
2022/01/20 15:07:30;;;;;;;20.82;12.00;;;;;;;-4.08;91.35;99901.30;1662322;86;21349;-85
2022/01/20 15:10:36;;;;;;;22.62;11.35;;;;;;;-4.11;91.65;99899.19;1688669;85;21183;-85
2022/01/20 15:13:42;;;;;;;25.25;12.03;;;;;;;-4.14;91.82;99893.16;1702572;84;21170;-82
2022/01/20 15:16:46;;;;;;;27.40;12.55;;;;;;;-4.17;92.00;99897.38;1702433;84;21321;-78
2022/01/20 15:19:51;;;;;;;25.70;10.80;;;;;;;-4.19;92.24;99891.25;1702443;84;21301;-85
2022/01/20 15:22:56;;;;;;;19.17;9.83;;;;;;;-4.22;92.73;99881.63;1702447;84;21186;-77
2022/01/20 15:26:01;;;;;;;23.00;11.63;;;;;;;-4.19;93.34;99882.79;1702352;84;21324;-77